KACK

Nantucket Memorial Airport

Nantucket, Massachusetts, USA
METAR KACK 152028Z 17005KT 3/4SM R24/2600VP6000FT BR BKN003 21/20 A2996 RMK AO2 T02060200
Observed Flight Rules
Jul-15 @ 20:28 UTC (24 minutes ago) Instrument Flight Rules
Wind Visibility Clouds Conditions
170° at 5 knots 3/4 miles
  • Broken at 300' AGL
  • Mist
Temperatures Readings
Current 21°C / 70°F
Dewpoint 20°C / 68°F
Humidity 94%
Altimeter 29.96" Hg
Pressure 1015 hPa
Elevation 16
METAR KACK 152028Z 17005KT 3/4SM R24/2600VP6000FT BR BKN003 21/20 A2996 RMK AO2 T02060200
Observed Flight Rules
Jul-15 @ 20:28 UTC
(24 minutes ago)
LIFR
Wind Visibility
170° at 5 knots 3/4 miles
Clouds
  • Broken at 300' AGL
Conditions
  • Mist
Temperature Dewpoint
21°C / 70°F 20°C / 68°F
Humidity Altimeter Pressure
94% 29.96" Hg 1015 hPa